createdAt,value
2023-02-17T00:00:00.000Z,56.75
2023-02-17T00:15:00.000Z,56.74
2023-02-17T00:30:00.000Z,55.81
2023-02-17T00:45:00.000Z,55.05
2023-02-17T01:00:00.000Z,55.22
2023-02-17T01:15:00.000Z,54.89
2023-02-17T01:30:00.000Z,54.86
2023-02-17T01:45:00.000Z,54.31
2023-02-17T02:00:00.000Z,54.29
2023-02-17T02:15:00.000Z,54.52
2023-02-17T02:30:00.000Z,54.94
2023-02-17T02:45:00.000Z,54.86
2023-02-17T03:00:00.000Z,55.17
2023-02-17T03:15:00.000Z,55.51
2023-02-17T03:30:00.000Z,55.34
2023-02-17T03:45:00.000Z,55
2023-02-17T04:00:00.000Z,54.8
2023-02-17T04:15:00.000Z,55.04
2023-02-17T04:30:00.000Z,55.33
2023-02-17T04:45:00.000Z,55.3
2023-02-17T05:00:00.000Z,55.63
2023-02-17T05:15:00.000Z,55.72
2023-02-17T05:30:00.000Z,56.04
2023-02-17T05:45:00.000Z,55.62
2023-02-17T06:00:00.000Z,55.35
2023-02-17T06:15:00.000Z,54.73
2023-02-17T06:30:00.000Z,54.44
2023-02-17T06:45:00.000Z,52.73
2023-02-17T07:00:00.000Z,53.09
2023-02-17T07:15:00.000Z,52.62
2023-02-17T07:30:00.000Z,51.86
2023-02-17T07:45:00.000Z,51.14
2023-02-17T08:00:00.000Z,50.99
2023-02-17T08:15:00.000Z,51
2023-02-17T08:30:00.000Z,51.89
2023-02-17T08:45:00.000Z,55.31
2023-02-17T09:00:00.000Z,56.19
2023-02-17T09:15:00.000Z,54.79
2023-02-17T09:30:00.000Z,52.62
2023-02-17T09:45:00.000Z,52
2023-02-17T10:00:00.000Z,50.74
2023-02-17T10:15:00.000Z,52.22
2023-02-17T10:30:00.000Z,55.74
2023-02-17T10:45:00.000Z,55.62
2023-02-17T11:00:00.000Z,58.37
2023-02-17T11:15:00.000Z,59.9
2023-02-17T11:30:00.000Z,59.75
2023-02-17T11:45:00.000Z,58.57
2023-02-17T12:00:00.000Z,56.53
2023-02-17T12:15:00.000Z,56.14
2023-02-17T12:30:00.000Z,55.63
2023-02-17T12:45:00.000Z,55.71
2023-02-17T13:00:00.000Z,54.79
2023-02-17T13:15:00.000Z,53.78
2023-02-17T13:30:00.000Z,53.41
2023-02-17T13:45:00.000Z,54.18
2023-02-17T14:00:00.000Z,55.78
2023-02-17T14:15:00.000Z,56.16
2023-02-17T14:30:00.000Z,56.17
2023-02-17T14:45:00.000Z,56.41
2023-02-17T15:00:00.000Z,56.61
2023-02-17T15:15:00.000Z,56.99
2023-02-17T15:30:00.000Z,58.68
2023-02-17T15:45:00.000Z,62.55
2023-02-17T16:00:00.000Z,64.85
2023-02-17T16:15:00.000Z,65.88
2023-02-17T16:30:00.000Z,66.74
2023-02-17T16:45:00.000Z,66.29
2023-02-17T17:00:00.000Z,67.31
2023-02-17T17:15:00.000Z,67.23
2023-02-17T17:30:00.000Z,66.69
2023-02-17T17:45:00.000Z,66.53
2023-02-17T18:00:00.000Z,66.69
2023-02-17T18:15:00.000Z,67.13
2023-02-17T18:30:00.000Z,67.18
2023-02-17T18:45:00.000Z,66.79
2023-02-17T19:00:00.000Z,65.74
2023-02-17T19:15:00.000Z,65.26
2023-02-17T19:30:00.000Z,66.23
2023-02-17T19:45:00.000Z,65.98
2023-02-17T20:00:00.000Z,65.59
2023-02-17T20:15:00.000Z,65.12
2023-02-17T20:30:00.000Z,65.98
2023-02-17T20:45:00.000Z,66.12
2023-02-17T21:00:00.000Z,66.28
2023-02-17T21:15:00.000Z,66.77
2023-02-17T21:30:00.000Z,67.36
2023-02-17T21:45:00.000Z,68.56
2023-02-17T22:00:00.000Z,68.65
2023-02-17T22:15:00.000Z,68.67
2023-02-17T22:30:00.000Z,67.53
2023-02-17T22:45:00.000Z,65.59
2023-02-17T23:00:00.000Z,64.41
2023-02-17T23:15:00.000Z,65.16
2023-02-17T23:30:00.000Z,63.93
2023-02-17T23:45:00.000Z,64.48
